Time;durP1;ratioP1;P1;durP2;ratioP2;P2;SDS_P1;SDS_P2;PMS_P1;PMS_P2;Temp;Humidity;BMP_temperature;BMP_pressure;BME280_temperature;BME280_humidity;BME280_pressure;Samples;Min_cycle;Max_cycle;Signal;HPM_P1;HPM_P2
2023/03/28 00:02:49;;;;;;;12.15;5.47;;;;;;;7.73;100.00;99026.13;1764154;80;21156;-80
2023/03/28 00:05:55;;;;;;;9.93;4.92;;;;;;;7.73;100.00;99025.29;1749677;82;21757;-79
2023/03/28 00:09:01;;;;;;;9.93;5.05;;;;;;;7.71;100.00;99024.09;1749759;82;21740;-87
2023/03/28 00:12:07;;;;;;;11.12;5.20;;;;;;;7.74;100.00;99015.56;1749859;82;21156;-85
2023/03/28 00:15:14;;;;;;;12.63;5.30;;;;;;;7.67;100.00;99013.29;1749523;80;21181;-79
2023/03/28 00:18:19;;;;;;;12.95;4.55;;;;;;;7.83;100.00;99013.59;1749600;80;21180;-85
2023/03/28 00:21:31;;;;;;;11.15;5.37;;;;;;;7.61;100.00;99008.06;1749606;82;21199;-86
2023/03/28 00:24:34;;;;;;;13.03;6.25;;;;;;;7.61;100.00;99003.98;1749532;82;21172;-79
2023/03/28 00:27:25;;;;;;;14.70;7.58;;;;;;;7.60;100.00;98999.58;1749660;82;21144;-86
2023/03/28 00:30:19;;;;;;;15.75;8.35;;;;;;;7.53;100.00;99001.38;1749840;81;21164;-85
2023/03/28 00:33:27;;;;;;;15.93;8.58;;;;;;;7.50;100.00;98995.46;1759766;81;21156;-79
2023/03/28 00:36:33;;;;;;;16.12;7.67;;;;;;;7.53;100.00;98993.22;1760511;81;21156;-86
2023/03/28 00:39:39;;;;;;;14.98;7.37;;;;;;;7.53;100.00;98978.25;1760182;81;21184;-86
2023/03/28 00:42:51;;;;;;;16.37;9.65;;;;;;;7.58;100.00;98977.16;1760794;81;21152;-79
2023/03/28 00:45:59;;;;;;;22.77;10.75;;;;;;;7.78;100.00;98971.13;1760228;80;21203;-86
2023/03/28 00:49:13;;;;;;;19.35;10.58;;;;;;;7.67;100.00;98967.02;1774232;79;21157;-86
2023/03/28 00:52:19;;;;;;;22.40;10.63;;;;;;;7.46;100.00;98967.78;1754502;81;21724;-86
2023/03/28 00:55:31;;;;;;;24.77;11.73;;;;;;;7.45;100.00;98967.98;1774311;79;21176;-80
2023/03/28 00:58:40;;;;;;;22.77;9.68;;;;;;;7.40;100.00;98961.23;1724833;83;21195;-79
2023/03/28 01:01:46;;;;;;;12.53;6.92;;;;;;;7.47;100.00;98954.50;1725938;81;21211;-86
2023/03/28 01:04:59;;;;;;;20.97;9.40;;;;;;;7.51;100.00;98953.61;1759194;80;21207;-86
2023/03/28 01:08:11;;;;;;;18.70;8.18;;;;;;;7.50;100.00;98949.20;1760691;81;21160;-79
2023/03/28 01:11:17;;;;;;;12.78;7.20;;;;;;;7.51;100.00;98934.56;1760572;81;21199;-86
2023/03/28 01:14:27;;;;;;;13.25;6.72;;;;;;;7.56;100.00;98935.67;1760743;80;21180;-86
2023/03/28 01:17:33;;;;;;;12.47;4.53;;;;;;;7.56;100.00;98930.75;1760851;81;21164;-80
2023/03/28 01:21:01;;;;;;;9.33;5.75;;;;;;;7.38;100.00;98937.95;1753869;81;21209;-85
2023/03/28 01:24:30;;;;;;;10.70;5.50;;;;;;;7.35;100.00;98933.75;1761844;80;21208;-86
2023/03/28 01:28:04;;;;;;;12.28;6.03;;;;;;;7.42;100.00;98931.94;1761802;81;21144;-85
2023/03/28 01:31:27;;;;;;;10.53;5.62;;;;;;;7.50;100.00;98934.25;1761825;80;21180;-87
2023/03/28 01:35:17;;;;;;;9.28;5.58;;;;;;;7.47;100.00;98928.65;1734619;81;21757;-79
2023/03/28 01:38:38;;;;;;;14.58;6.65;;;;;;;7.45;100.00;98927.17;1705882;83;21180;-83
2023/03/28 01:42:09;;;;;;;14.43;6.22;;;;;;;7.22;100.00;98917.25;1734547;83;21216;-86
2023/03/28 01:45:47;;;;;;;15.88;5.53;;;;;;;7.17;100.00;98920.53;1734437;81;21721;-79
2023/03/28 01:49:07;;;;;;;12.28;5.87;;;;;;;7.14;100.00;98921.41;1733248;81;21179;-79
2023/03/28 01:52:30;;;;;;;9.53;6.15;;;;;;;7.05;100.00;98918.45;1732987;83;21179;-86
2023/03/28 01:55:52;;;;;;;11.12;5.10;;;;;;;7.16;100.00;98922.09;1733261;81;21199;-79
2023/03/28 01:59:23;;;;;;;12.25;5.20;;;;;;;7.09;100.00;98927.41;1734410;81;21244;-85
2023/03/28 02:03:01;;;;;;;12.07;5.85;;;;;;;7.05;100.00;98921.18;1733144;83;21729;-79
2023/03/28 02:06:13;;;;;;;12.35;5.12;;;;;;;6.98;100.00;98908.02;1734466;81;21207;-79
2023/03/28 02:09:21;;;;;;;11.88;5.45;;;;;;;7.04;100.00;98907.27;1734368;81;21211;-79
2023/03/28 02:12:36;;;;;;;;;;;;;;;6.89;100.00;98909.47;1737052;83;21160;-80
2023/03/28 02:16:04;;;;;;;11.78;5.10;;;;;;;6.80;100.00;98914.66;1733390;81;20536;-86
2023/03/28 02:19:16;;;;;;;13.83;5.60;;;;;;;6.90;100.00;98904.87;1728764;81;21203;-80
2023/03/28 02:22:44;;;;;;;14.18;6.20;;;;;;;6.96;100.00;98905.47;1708691;83;21180;-86
2023/03/28 02:25:55;;;;;;;13.48;6.15;;;;;;;6.95;100.00;98909.23;1731160;81;21851;-80
2023/03/28 02:29:16;;;;;;;14.70;6.28;;;;;;;6.87;100.00;98900.67;1671279;81;21196;-80
2023/03/28 02:32:36;;;;;;;12.82;6.28;;;;;;;7.02;100.00;98900.66;1737261;81;21222;-79
2023/03/28 02:35:55;;;;;;;17.65;7.17;;;;;;;6.98;100.00;98897.15;1762498;80;21199;-86
2023/03/28 02:39:31;;;;;;;10.88;6.10;;;;;;;6.93;100.00;98884.12;1763350;80;21723;-86
2023/03/28 02:42:53;;;;;;;15.90;6.70;;;;;;;7.06;100.00;98876.67;1747437;81;21176;-81
2023/03/28 02:46:26;;;;;;;11.95;6.17;;;;;;;7.09;100.00;98869.47;1761936;80;21752;-80
2023/03/28 02:49:56;;;;;;;11.95;6.75;;;;;;;6.99;100.00;98864.33;1763013;80;21243;-86
2023/03/28 02:53:26;;;;;;;12.10;6.35;;;;;;;7.03;100.00;98858.00;1763329;81;21144;-86
2023/03/28 02:56:35;;;;;;;11.30;6.42;;;;;;;7.06;100.00;98861.72;1763589;81;21215;-82
2023/03/28 02:59:52;;;;;;;10.70;6.10;;;;;;;7.00;100.00;98856.49;1752354;80;21200;-87
2023/03/28 03:03:00;;;;;;;14.18;5.80;;;;;;;6.87;100.00;98849.55;1762115;81;21199;-86
2023/03/28 03:06:05;;;;;;;11.35;5.45;;;;;;;6.82;100.00;98850.11;1762028;80;21207;-86
2023/03/28 03:09:12;;;;;;;11.00;5.45;;;;;;;6.93;100.00;98849.30;1761934;80;21200;-86
2023/03/28 03:12:19;;;;;;;16.15;5.80;;;;;;;6.97;100.00;98839.22;1763509;81;21172;-79
2023/03/28 03:15:29;;;;;;;12.28;5.53;;;;;;;6.86;100.00;98836.44;1763491;80;21208;-86
2023/03/28 03:18:44;;;;;;;16.65;5.25;;;;;;;6.70;100.00;98822.22;1763602;81;21196;-86
2023/03/28 03:21:49;;;;;;;11.08;5.40;;;;;;;6.73;100.00;98820.47;1763472;81;21227;-87
2023/03/28 03:25:03;;;;;;;12.80;5.45;;;;;;;6.64;100.00;98808.88;1762763;80;21203;-79
2023/03/28 03:28:05;;;;;;;14.58;6.00;;;;;;;6.68;100.00;98811.55;1763655;81;21200;-79
2023/03/28 03:31:11;;;;;;;17.00;5.80;;;;;;;6.79;100.00;98815.14;1763477;80;21749;-79
2023/03/28 03:34:26;;;;;;;9.88;4.97;;;;;;;6.69;100.00;98817.30;1761436;80;21729;-87
2023/03/28 03:37:31;;;;;;;10.75;5.53;;;;;;;6.66;100.00;98821.22;1763422;81;21239;-82
2023/03/28 03:40:37;;;;;;;9.88;5.10;;;;;;;6.58;100.00;98811.80;1762288;80;21764;-87
2023/03/28 03:43:44;;;;;;;15.68;6.75;;;;;;;6.55;100.00;98812.72;1761953;81;21744;-79
2023/03/28 03:46:52;;;;;;;11.65;6.00;;;;;;;6.44;100.00;98806.37;1763474;81;21160;-80
2023/03/28 03:49:59;;;;;;;9.13;5.35;;;;;;;6.47;100.00;98804.64;1763540;80;21207;-87
2023/03/28 03:53:04;;;;;;;12.13;6.05;;;;;;;6.53;100.00;98797.09;1763564;81;21772;-80
2023/03/28 03:56:25;;;;;;;13.05;5.65;;;;;;;6.45;100.00;98811.63;1763577;81;21203;-80
2023/03/28 03:59:30;;;;;;;10.05;6.17;;;;;;;6.44;100.00;98809.08;1763445;80;21191;-79
2023/03/28 04:02:38;;;;;;;12.78;6.67;;;;;;;6.39;100.00;98794.19;1763416;81;21220;-87
2023/03/28 04:05:45;;;;;;;13.78;6.78;;;;;;;6.39;100.00;98784.67;1763500;80;21203;-79
2023/03/28 04:08:51;;;;;;;12.58;6.67;;;;;;;6.42;100.00;98778.56;1763535;80;21164;-87
2023/03/28 04:12:01;;;;;;;14.43;5.95;;;;;;;6.46;100.00;98778.52;1763149;81;21172;-79
2023/03/28 04:15:09;;;;;;;17.10;7.60;;;;;;;6.57;100.00;98778.05;1763504;80;21227;-79
2023/03/28 04:18:23;;;;;;;16.60;7.92;;;;;;;6.61;100.00;98774.77;1763568;81;21175;-79
2023/03/28 04:21:34;;;;;;;17.62;7.70;;;;;;;6.63;100.00;98760.48;1762828;81;21163;-87
2023/03/28 04:24:43;;;;;;;13.78;8.00;;;;;;;6.62;100.00;98764.22;1762361;81;21573;-79
2023/03/28 04:28:00;;;;;;;13.88;7.45;;;;;;;6.73;100.00;98768.84;1762379;81;21156;-87
2023/03/28 04:31:10;;;;;;;13.00;7.28;;;;;;;6.77;100.00;98759.28;1762475;81;21215;-86
2023/03/28 04:34:34;;;;;;;12.45;6.90;;;;;;;6.80;100.00;98752.11;1759203;81;21187;-87
2023/03/28 04:37:40;;;;;;;10.78;7.28;;;;;;;6.96;100.00;98754.59;1747632;81;21710;-80
2023/03/28 04:40:45;;;;;;;12.63;6.87;;;;;;;7.16;100.00;98752.97;1747500;80;21809;-88
2023/03/28 04:44:01;;;;;;;16.87;7.75;;;;;;;7.13;100.00;98767.46;1721296;80;21741;-88
2023/03/28 04:47:10;;;;;;;10.48;7.20;;;;;;;7.09;100.00;98752.04;1747530;82;21742;-87
2023/03/28 04:50:17;;;;;;;10.95;7.05;;;;;;;7.15;100.00;98747.70;1747591;80;21757;-79
2023/03/28 04:53:23;;;;;;;18.98;12.10;;;;;;;7.18;100.00;98743.25;1748818;82;21244;-87
2023/03/28 04:56:40;;;;;;;14.55;10.32;;;;;;;7.26;100.00;98732.26;1748841;82;21216;-87
2023/03/28 04:59:34;;;;;;;18.73;10.32;;;;;;;7.46;100.00;98732.45;1748473;80;21319;-79
2023/03/28 05:02:21;;;;;;;16.80;11.18;;;;;;;7.42;100.00;98733.35;1748189;82;21188;-79
2023/03/28 05:05:17;;;;;;;21.90;11.95;;;;;;;7.43;100.00;98730.11;1747972;81;21752;-87
2023/03/28 05:08:05;;;;;;;20.70;12.53;;;;;;;7.45;100.00;98732.13;1748994;82;21140;-86
2023/03/28 05:11:00;;;;;;;21.93;11.75;;;;;;;7.40;100.00;98726.44;1748559;80;21212;-79
2023/03/28 05:13:50;;;;;;;21.68;12.25;;;;;;;7.43;100.00;98730.11;1748999;80;21729;-87
2023/03/28 05:16:44;;;;;;;22.95;12.30;;;;;;;7.48;100.00;98729.52;1748999;82;21141;-86
2023/03/28 05:19:53;;;;;;;19.20;12.33;;;;;;;7.63;100.00;98722.16;1743217;80;21176;-85
2023/03/28 05:23:00;;;;;;;17.77;10.25;;;;;;;7.76;100.00;98722.24;1747935;82;21753;-87
2023/03/28 05:26:08;;;;;;;18.82;11.28;;;;;;;7.76;100.00;98718.68;1747412;80;21232;-88
2023/03/28 05:29:14;;;;;;;19.65;9.65;;;;;;;7.82;100.00;98723.36;1748805;80;21208;-80
2023/03/28 05:32:19;;;;;;;15.85;10.58;;;;;;;7.81;100.00;98723.02;1748517;82;21149;-80
2023/03/28 05:35:26;;;;;;;28.98;11.60;;;;;;;7.78;100.00;98717.45;1747999;81;21729;-87
2023/03/28 05:38:32;;;;;;;17.20;10.85;;;;;;;7.73;100.00;98713.65;1734367;83;21216;-88
2023/03/28 05:41:39;;;;;;;15.07;9.93;;;;;;;7.82;100.00;98706.50;1734358;83;21180;-88
2023/03/28 05:44:45;;;;;;;21.70;11.88;;;;;;;7.84;100.00;98708.49;1732809;81;21780;-88
2023/03/28 05:48:10;;;;;;;18.67;11.12;;;;;;;7.78;100.00;98688.88;1734342;83;21180;-80
2023/03/28 05:51:16;;;;;;;13.75;10.60;;;;;;;7.97;100.00;98687.34;1734435;83;21748;-83
2023/03/28 05:54:22;;;;;;;15.90;10.38;;;;;;;8.00;100.00;98670.62;1734208;81;21223;-81
2023/03/28 05:57:27;;;;;;;18.17;10.40;;;;;;;8.14;100.00;98674.27;1734428;83;21184;-80
2023/03/28 06:00:27;;;;;;;16.77;10.90;;;;;;;8.16;100.00;98649.86;1733498;81;21224;-79
2023/03/28 06:03:32;;;;;;;16.17;9.53;;;;;;;8.13;100.00;98646.69;1732757;83;21764;-88
2023/03/28 06:06:38;;;;;;;19.17;9.10;;;;;;;8.23;100.00;98653.13;1734596;83;21160;-80
2023/03/28 06:09:47;;;;;;;;;;;;;;;8.37;100.00;98623.05;1730275;81;21757;-80
2023/03/28 06:12:59;;;;;;;18.23;10.08;;;;;;;8.37;100.00;98617.60;1754575;81;20620;-83
2023/03/28 06:16:07;;;;;;;13.55;8.03;;;;;;;8.39;100.00;98638.69;1711874;83;21199;-84
2023/03/28 06:19:09;;;;;;;17.50;14.00;;;;;;;8.49;100.00;98593.88;1730223;82;21223;-83
2023/03/28 06:22:04;;;;;;;14.33;10.38;;;;;;;8.54;100.00;98618.62;1714030;83;21223;-83
2023/03/28 06:25:14;;;;;;;13.68;9.23;;;;;;;8.56;100.00;98624.20;1693907;84;21239;-82
2023/03/28 06:28:14;;;;;;;14.35;10.23;;;;;;;8.66;100.00;98602.84;1727704;82;21184;-83
2023/03/28 06:31:27;;;;;;;14.83;9.98;;;;;;;8.66;100.00;98608.30;1706519;83;21214;-83
2023/03/28 06:34:33;;;;;;;15.38;10.18;;;;;;;8.64;100.00;98632.70;1698129;83;21172;-83
2023/03/28 06:37:40;;;;;;;11.00;7.55;;;;;;;8.67;100.00;98625.48;1721588;82;21215;-83
2023/03/28 06:40:49;;;;;;;;;;;;;;;8.64;100.00;98634.06;1702870;84;21255;-83
2023/03/28 06:43:59;;;;;;;18.02;12.28;;;;;;;8.74;100.00;98622.77;1705127;84;20256;-84
2023/03/28 06:47:07;;;;;;;16.60;7.42;;;;;;;8.63;100.00;98611.95;1729821;82;21306;-84
2023/03/28 06:50:16;;;;;;;19.15;7.85;;;;;;;8.68;100.00;98599.91;1707760;82;21221;-84
2023/03/28 06:53:24;;;;;;;11.93;7.65;;;;;;;8.65;100.00;98594.85;1683954;84;21255;-84
2023/03/28 06:56:41;;;;;;;11.33;7.55;;;;;;;8.74;100.00;98592.25;1719408;82;21231;-85
2023/03/28 06:59:59;;;;;;;18.25;7.65;;;;;;;8.92;100.00;98580.23;1845926;76;22225;-83
2023/03/28 07:03:11;;;;;;;19.07;7.28;;;;;;;8.96;100.00;98595.14;1795035;79;21194;-83
2023/03/28 07:06:20;;;;;;;10.80;7.53;;;;;;;9.16;99.45;98581.51;1815101;79;21226;-83
2023/03/28 07:09:26;;;;;;;9.85;6.25;;;;;;;9.18;98.85;98574.50;1814628;79;21202;-84
2023/03/28 07:12:35;;;;;;;11.20;6.35;;;;;;;9.10;98.66;98578.80;1802149;79;21171;-84
2023/03/28 07:15:42;;;;;;;12.82;6.97;;;;;;;8.96;99.55;98582.86;1749025;82;21204;-84
2023/03/28 07:18:47;;;;;;;9.73;6.00;;;;;;;9.00;99.25;98558.75;1754462;80;21203;-84
2023/03/28 07:21:55;;;;;;;15.78;6.17;;;;;;;9.04;99.55;98560.55;1748463;82;21226;-84
2023/03/28 07:25:02;;;;;;;12.85;7.47;;;;;;;8.95;99.75;98563.47;1750227;82;21166;-84
2023/03/28 07:28:09;;;;;;;14.13;6.10;;;;;;;9.10;99.68;98564.62;1750175;82;21237;-83
2023/03/28 07:31:17;;;;;;;16.70;5.67;;;;;;;9.12;99.08;98557.59;1750136;82;21250;-83
2023/03/28 07:34:24;;;;;;;10.32;5.78;;;;;;;9.06;99.12;98556.55;1763440;79;21189;-83
2023/03/28 07:37:32;;;;;;;11.80;5.83;;;;;;;9.35;98.25;98544.36;1742592;82;21248;-83
2023/03/28 07:40:56;;;;;;;8.48;5.12;;;;;;;9.38;97.44;98547.20;1724364;81;21232;-83
2023/03/28 07:44:02;;;;;;;9.05;4.90;;;;;;;9.57;96.55;98538.67;1717957;82;21248;-83
2023/03/28 07:47:08;;;;;;;7.78;4.10;;;;;;;9.69;95.37;98556.06;1740298;80;21261;-83
2023/03/28 07:50:15;;;;;;;15.00;6.17;;;;;;;9.65;95.84;98531.63;1734323;82;21185;-83
2023/03/28 07:53:23;;;;;;;7.62;4.87;;;;;;;9.66;97.03;98517.76;1728173;82;21264;-83
2023/03/28 07:56:29;;;;;;;17.98;5.75;;;;;;;9.65;98.80;98522.08;1739227;82;21157;-84
2023/03/28 07:59:56;;;;;;;7.92;4.53;;;;;;;9.54;99.94;98510.44;1729546;82;21178;-83
2023/03/28 08:03:19;;;;;;;10.13;5.08;;;;;;;9.54;100.00;98515.89;1734689;82;22044;-83
2023/03/28 08:06:26;;;;;;;14.28;4.75;;;;;;;9.42;100.00;98502.91;1745800;81;21216;-84
2023/03/28 08:09:33;;;;;;;9.95;4.97;;;;;;;9.40;100.00;98498.17;1732525;82;21181;-84
2023/03/28 08:12:41;;;;;;;7.53;4.42;;;;;;;9.25;100.00;98488.02;1718094;83;21236;-84
2023/03/28 08:15:47;;;;;;;11.22;5.30;;;;;;;9.43;100.00;98492.83;1744944;82;21201;-84
2023/03/28 08:19:06;;;;;;;8.20;4.78;;;;;;;9.40;100.00;98494.61;1737154;82;21251;-84
2023/03/28 08:22:35;;;;;;;12.00;5.20;;;;;;;9.32;100.00;98490.23;1749246;82;21232;-85
2023/03/28 08:25:46;;;;;;;12.35;4.67;;;;;;;9.40;100.00;98498.17;1708218;82;21205;-84
2023/03/28 08:28:53;;;;;;;13.32;5.47;;;;;;;9.48;100.00;98483.47;1737524;82;21246;-84
2023/03/28 08:32:00;;;;;;;9.95;5.10;;;;;;;9.60;100.00;98482.30;1691101;83;21213;-84
2023/03/28 08:35:41;;;;;;;8.23;4.62;;;;;;;9.70;100.00;98470.41;1719577;83;21860;-85
2023/03/28 08:39:02;;;;;;;;;;;;;;;;;;;;;
2023/03/28 08:42:12;;;;;;;13.65;5.90;;;;;;;9.60;100.00;98437.27;1725707;82;21212;-84
2023/03/28 08:45:45;;;;;;;13.20;5.25;;;;;;;9.55;100.00;98460.24;1721617;82;21220;-85
2023/03/28 08:48:59;;;;;;;14.30;5.33;;;;;;;9.45;99.09;98439.70;1768993;81;21196;-87
2023/03/28 08:52:45;;;;;;;9.93;4.80;;;;;;;9.45;97.67;98432.04;1721389;82;21231;-85
2023/03/28 08:55:50;;;;;;;8.25;4.75;;;;;;;9.33;99.31;98448.25;1733262;81;21212;-85
2023/03/28 08:59:15;;;;;;;8.10;5.47;;;;;;;9.24;99.73;98424.97;1718210;82;21224;-86
2023/03/28 09:02:29;;;;;;;11.15;5.65;;;;;;;9.19;99.80;98423.41;1685415;82;21284;-87
2023/03/28 09:06:00;;;;;;;8.95;5.78;;;;;;;9.21;100.00;98441.23;1709160;83;21228;-87
2023/03/28 09:09:52;;;;;;;10.63;6.37;;;;;;;9.25;100.00;98441.65;1667667;82;22363;-85
2023/03/28 09:13:14;;;;;;;10.72;7.58;;;;;;;9.24;100.00;98416.79;1691302;83;21252;-86
2023/03/28 09:16:45;;;;;;;11.30;6.55;;;;;;;9.31;100.00;98421.69;1739675;81;21242;-86
2023/03/28 09:20:18;;;;;;;12.55;7.80;;;;;;;9.48;100.00;98431.63;1697635;84;21807;-85
2023/03/28 09:24:25;;;;;;;18.90;6.53;;;;;;;9.62;100.00;98414.14;1728972;82;21186;-86
2023/03/28 09:27:38;;;;;;;14.00;8.25;;;;;;;9.51;100.00;98419.45;1701791;83;21284;-86
2023/03/28 09:30:55;;;;;;;13.18;7.55;;;;;;;9.63;100.00;98409.52;1722496;82;21879;-86
2023/03/28 09:34:00;;;;;;;14.35;7.47;;;;;;;9.68;100.00;98405.08;1699027;83;21205;-86
2023/03/28 09:37:10;;;;;;;10.58;6.90;;;;;;;9.71;100.00;98405.19;1710227;83;21863;-86
2023/03/28 09:40:29;;;;;;;11.63;7.40;;;;;;;9.85;100.00;98407.33;1702586;83;21271;-86
2023/03/28 09:43:49;;;;;;;14.33;7.65;;;;;;;9.79;100.00;98397.28;1697537;82;21271;-86
2023/03/28 09:47:02;;;;;;;12.90;7.90;;;;;;;9.78;100.00;98385.50;1721857;82;21819;-86
2023/03/28 09:50:09;;;;;;;11.30;7.97;;;;;;;9.75;100.00;98383.22;1706659;83;21173;-84
2023/03/28 09:53:25;;;;;;;19.92;8.58;;;;;;;9.69;100.00;98386.80;1706703;83;21208;-86
2023/03/28 09:56:41;;;;;;;17.95;8.80;;;;;;;9.64;100.00;98389.34;1716521;82;21160;-86
2023/03/28 09:59:49;;;;;;;18.25;9.38;;;;;;;9.57;100.00;98387.19;1709835;82;21207;-86
2023/03/28 10:03:00;;;;;;;12.68;8.13;;;;;;;9.63;100.00;98389.88;1731867;82;21268;-86
2023/03/28 10:06:07;;;;;;;19.90;9.13;;;;;;;9.65;100.00;98406.06;1733458;82;21177;-86
2023/03/28 10:09:29;;;;;;;19.35;8.98;;;;;;;9.57;100.00;98395.38;1792803;80;21193;-86
2023/03/28 10:12:44;;;;;;;20.35;9.15;;;;;;;9.59;100.00;98391.36;1763277;81;21212;-86
2023/03/28 10:15:54;;;;;;;26.23;9.75;;;;;;;9.68;100.00;98386.50;1764986;81;21391;-85
2023/03/28 10:19:18;;;;;;;28.52;13.32;;;;;;;9.76;100.00;98398.55;1789473;79;21177;-85
2023/03/28 10:22:27;;;;;;;41.73;16.62;;;;;;;9.59;100.00;98391.89;1802646;79;21194;-85
2023/03/28 10:25:31;;;;;;;33.15;13.22;;;;;;;9.63;100.00;98377.59;1725027;81;21181;-85
2023/03/28 10:28:42;;;;;;;12.50;4.00;;;;;;;9.71;100.00;98376.52;1722299;82;21179;-85
2023/03/28 10:31:53;;;;;;;7.80;3.72;;;;;;;9.65;100.00;98371.41;1746818;81;21173;-85
2023/03/28 10:35:16;;;;;;;7.50;3.27;;;;;;;9.69;100.00;98370.42;1736386;82;21181;-86
2023/03/28 10:38:53;;;;;;;6.62;3.30;;;;;;;9.61;100.00;98366.60;1771082;81;21715;-85
2023/03/28 10:42:07;;;;;;;7.15;3.25;;;;;;;9.41;100.00;98359.34;1760775;79;21185;-85
2023/03/28 10:45:52;;;;;;;8.63;3.35;;;;;;;9.41;100.00;98353.89;1771695;79;21177;-85
2023/03/28 10:49:04;;;;;;;11.75;3.90;;;;;;;9.55;100.00;98352.44;1800110;79;21181;-86
2023/03/28 10:52:46;;;;;;;6.83;3.90;;;;;;;9.26;100.00;98332.00;1731520;82;21264;-86
2023/03/28 10:56:40;;;;;;;10.18;4.20;;;;;;;9.23;100.00;98333.28;1782746;79;21723;-86
2023/03/28 11:00:27;;;;;;;9.65;4.12;;;;;;;9.27;100.00;98329.08;1796308;79;21212;-85
2023/03/28 11:04:03;;;;;;;9.15;4.97;;;;;;;9.29;100.00;98320.13;1686352;84;21794;-87
2023/03/28 11:07:13;;;;;;;8.83;4.45;;;;;;;9.37;100.00;98310.34;1694078;83;21761;-80
2023/03/28 11:10:44;;;;;;;6.58;4.42;;;;;;;9.42;100.00;98293.33;1712184;81;21260;-80
2023/03/28 11:14:06;;;;;;;12.18;5.30;;;;;;;9.53;100.00;98298.08;1703974;83;21172;-88
2023/03/28 11:17:22;;;;;;;8.93;5.03;;;;;;;9.59;100.00;98297.19;1708812;83;21204;-87
2023/03/28 11:20:54;;;;;;;8.63;5.47;;;;;;;9.63;100.00;98303.06;1708504;83;21578;-80
2023/03/28 11:24:15;;;;;;;18.37;5.42;;;;;;;9.62;100.00;98301.39;1708974;81;21200;-80
2023/03/28 11:28:06;;;;;;;12.07;5.97;;;;;;;9.56;100.00;98316.76;1712690;83;21187;-87
2023/03/28 11:31:14;;;;;;;13.00;5.62;;;;;;;9.56;100.00;98298.19;1709103;81;21224;-80
2023/03/28 11:34:33;;;;;;;13.45;5.87;;;;;;;9.60;100.00;98310.34;1715309;83;21216;-88
2023/03/28 11:37:56;;;;;;;11.33;5.92;;;;;;;9.61;100.00;98316.11;1712093;83;21232;-80
2023/03/28 11:41:21;;;;;;;11.05;5.97;;;;;;;9.50;100.00;98318.14;1692286;85;21856;-79
2023/03/28 11:44:50;;;;;;;10.25;5.67;;;;;;;9.47;100.00;98313.97;1692668;85;21220;-80
2023/03/28 11:48:04;;;;;;;13.25;6.50;;;;;;;9.42;100.00;98307.80;1712954;83;21209;-87
2023/03/28 11:51:15;;;;;;;9.78;6.17;;;;;;;9.53;100.00;98302.17;1736787;82;21173;-82
2023/03/28 11:54:45;;;;;;;14.28;7.08;;;;;;;9.55;100.00;98291.03;1703350;84;21214;-89
2023/03/28 11:58:13;;;;;;;12.07;6.20;;;;;;;9.54;100.00;98304.37;1736281;82;21208;-81
2023/03/28 12:01:28;;;;;;;9.70;6.78;;;;;;;9.38;100.00;98303.83;1703034;84;21214;-81
2023/03/28 12:04:41;;;;;;;12.00;6.92;;;;;;;9.39;100.00;98301.41;1748038;81;21220;-89
2023/03/28 12:08:00;;;;;;;12.75;8.00;;;;;;;9.38;100.00;98312.02;1748141;81;21117;-87
2023/03/28 12:11:08;;;;;;;12.78;7.62;;;;;;;9.22;100.00;98330.22;1744690;82;21188;-81
2023/03/28 12:14:41;;;;;;;11.35;7.60;;;;;;;9.23;100.00;98336.01;1744699;82;21184;-79
2023/03/28 12:18:00;;;;;;;19.10;9.00;;;;;;;9.17;100.00;98358.67;1744346;81;21180;-87
2023/03/28 12:21:32;;;;;;;16.20;9.00;;;;;;;9.11;100.00;98347.27;1710162;84;21197;-87
2023/03/28 12:24:48;;;;;;;11.73;7.75;;;;;;;9.01;100.00;98338.70;1743692;82;21180;-79
2023/03/28 12:28:33;;;;;;;13.90;9.48;;;;;;;9.06;100.00;98337.00;1710514;84;21446;-85
2023/03/28 12:31:55;;;;;;;13.72;8.75;;;;;;;9.01;100.00;98320.98;1743894;82;21924;-79
2023/03/28 12:35:38;;;;;;;21.68;9.83;;;;;;;8.94;100.00;98319.11;1710517;84;21197;-79
2023/03/28 12:38:57;;;;;;;16.80;10.20;;;;;;;8.90;100.00;98304.77;1746034;81;21196;-79
2023/03/28 12:42:04;;;;;;;15.53;10.75;;;;;;;9.01;100.00;98301.36;1755308;81;21180;-80
2023/03/28 12:45:13;;;;;;;15.75;10.45;;;;;;;9.10;100.00;98298.70;1746409;82;21215;-87
2023/03/28 12:48:42;;;;;;;21.43;9.93;;;;;;;9.06;100.00;98311.63;1757048;81;21179;-80
2023/03/28 12:51:53;;;;;;;16.02;10.78;;;;;;;9.10;100.00;98315.59;1746549;81;21148;-79
2023/03/28 12:55:06;;;;;;;17.00;10.32;;;;;;;9.14;100.00;98317.67;1746422;82;21482;-87
2023/03/28 12:58:34;;;;;;;18.60;10.35;;;;;;;9.14;100.00;98306.77;1756755;81;21211;-87
2023/03/28 13:01:55;;;;;;;16.93;10.63;;;;;;;9.10;100.00;98312.34;1746605;82;21178;-79
2023/03/28 13:05:22;;;;;;;16.17;9.68;;;;;;;9.07;100.00;98302.37;1755340;81;21221;-87
2023/03/28 13:08:54;;;;;;;20.40;10.80;;;;;;;9.07;100.00;98306.47;1728088;83;21753;-84
2023/03/28 13:12:29;;;;;;;20.48;12.23;;;;;;;9.22;100.00;98301.58;1728088;83;21180;-81
2023/03/28 13:15:38;;;;;;;18.92;11.40;;;;;;;9.21;100.00;98304.00;1728036;83;21204;-80
2023/03/28 13:18:53;;;;;;;17.57;10.40;;;;;;;9.25;100.00;98307.14;1727501;83;21710;-89
2023/03/28 13:22:05;;;;;;;11.95;9.65;;;;;;;9.26;100.00;98304.72;1709453;83;21734;-88
2023/03/28 13:25:37;;;;;;;20.05;10.18;;;;;;;9.33;100.00;98311.00;1728498;83;21236;-80
2023/03/28 13:28:53;;;;;;;20.20;10.82;;;;;;;9.40;100.00;98311.25;1712146;83;21706;-87
2023/03/28 13:31:59;;;;;;;21.23;10.48;;;;;;;9.39;100.00;98317.77;1710507;84;21225;-79
2023/03/28 13:35:11;;;;;;;22.52;10.90;;;;;;;9.35;100.00;98315.70;1669346;84;21786;-88
2023/03/28 13:38:38;;;;;;;19.35;10.58;;;;;;;9.31;100.00;98300.81;1711192;84;21763;-82
2023/03/28 13:41:55;;;;;;;22.13;11.15;;;;;;;9.34;100.00;98309.41;1710914;84;21189;-83
2023/03/28 13:45:01;;;;;;;22.15;10.95;;;;;;;9.34;100.00;98302.58;1711254;84;21205;-89
2023/03/28 13:48:09;;;;;;;17.48;10.03;;;;;;;9.30;100.00;98320.97;1711447;84;21173;-80
2023/03/28 13:51:15;;;;;;;19.23;10.68;;;;;;;9.29;100.00;98320.13;1711693;84;21185;-81
2023/03/28 13:54:22;;;;;;;15.32;9.95;;;;;;;9.30;100.00;98313.62;1711332;84;21217;-88
2023/03/28 13:57:30;;;;;;;17.55;10.53;;;;;;;9.29;100.00;98320.13;1711114;84;21165;-88
2023/03/28 14:00:36;;;;;;;17.80;10.25;;;;;;;9.41;100.00;98312.95;1711299;84;21747;-89
2023/03/28 14:03:42;;;;;;;21.00;11.68;;;;;;;9.43;100.00;98320.38;1709730;83;21750;-88
2023/03/28 14:06:48;;;;;;;21.85;10.15;;;;;;;9.39;100.00;98321.03;1683585;85;21173;-80
2023/03/28 14:09:54;;;;;;;23.00;11.22;;;;;;;9.43;100.00;98328.56;1667230;86;21238;-88
2023/03/28 14:13:01;;;;;;;20.95;11.03;;;;;;;9.35;100.00;98325.25;1683876;85;21153;-80
2023/03/28 14:16:08;;;;;;;23.90;11.78;;;;;;;9.38;100.00;98328.91;1648720;86;21202;-89
2023/03/28 14:19:16;;;;;;;21.20;11.40;;;;;;;9.32;100.00;98340.17;1683809;85;21653;-88
2023/03/28 14:22:26;;;;;;;25.20;11.20;;;;;;;9.34;100.00;98329.87;1666118;86;21178;-89
2023/03/28 14:25:32;;;;;;;21.90;11.90;;;;;;;9.33;100.00;98338.28;1696891;84;21767;-88
2023/03/28 14:28:37;;;;;;;25.10;11.90;;;;;;;9.30;100.00;98338.17;1696677;84;22478;-82
2023/03/28 14:31:47;;;;;;;19.92;10.63;;;;;;;9.37;100.00;98340.89;1696775;84;21218;-84
2023/03/28 14:34:52;;;;;;;21.15;10.35;;;;;;;9.42;100.00;98330.16;1695787;84;21171;-80
2023/03/28 14:38:01;;;;;;;25.12;10.75;;;;;;;9.48;100.00;98337.47;1696762;84;21174;-82
2023/03/28 14:41:28;;;;;;;25.77;10.88;;;;;;;9.42;100.00;98340.55;1696675;84;21230;-88
2023/03/28 14:44:31;;;;;;;18.82;10.48;;;;;;;9.38;100.00;98338.47;1696523;84;21771;-88
2023/03/28 14:47:37;;;;;;;21.20;10.10;;;;;;;9.36;100.00;98338.69;1696854;84;21167;-82
2023/03/28 14:50:45;;;;;;;25.43;11.22;;;;;;;9.41;100.00;98345.70;1696534;84;21746;-88
2023/03/28 14:53:52;;;;;;;21.70;11.08;;;;;;;9.43;100.00;98355.86;1696684;84;21214;-89
2023/03/28 14:56:59;;;;;;;23.20;10.70;;;;;;;9.40;100.00;98367.72;1696765;84;21170;-81
2023/03/28 15:00:11;;;;;;;27.40;11.10;;;;;;;9.33;100.00;98369.13;1696791;84;21238;-90
2023/03/28 15:03:40;;;;;;;18.32;10.15;;;;;;;9.26;100.00;98374.28;1696680;84;21158;-89
2023/03/28 15:06:47;;;;;;;20.95;11.00;;;;;;;9.47;100.00;98375.38;1695950;84;21218;-80